Time;durP1;ratioP1;P1;durP2;ratioP2;P2;SDS_P1;SDS_P2;PMS_P1;PMS_P2;Temp;Humidity;BMP_temperature;BMP_pressure;BME280_temperature;BME280_humidity;BME280_pressure;Samples;Min_cycle;Max_cycle;Signal;HPM_P1;HPM_P2
2023/06/22 01:01:23;;;;;;;5.03;3.13;;;23.70;94.60;;;24.21;86.93;101132.16;5242090;28;20047;-69
2023/06/22 01:03:57;;;;;;;4.65;3.03;;;23.70;94.50;;;24.16;87.02;101126.03;5225235;28;20518;-69
2023/06/22 01:06:38;;;;;;;4.68;2.95;;;23.60;94.60;;;24.13;87.48;101120.78;5197156;28;20052;-70
2023/06/22 01:09:15;;;;;;;;;;;23.60;94.80;;;24.08;88.24;101123.50;5230569;28;20094;-69
2023/06/22 01:11:55;;;;;;;5.00;3.15;;;23.60;95.00;;;24.07;89.11;101116.41;5213477;28;19920;-69
2023/06/22 01:14:38;;;;;;;4.43;3.00;;;23.50;95.30;;;24.06;89.54;101117.31;5197135;28;20056;-69
2023/06/22 01:17:16;;;;;;;4.68;3.13;;;23.50;95.50;;;24.04;90.50;101121.78;5246219;28;20049;-69
2023/06/22 01:19:55;;;;;;;3.97;3.10;;;23.50;95.80;;;24.01;90.58;101112.97;5248196;28;20044;-69
2023/06/22 01:22:32;;;;;;;4.05;2.95;;;23.40;95.90;;;23.99;90.44;101106.75;5229226;28;20496;-69
2023/06/22 01:25:14;;;;;;;4.22;3.13;;;23.40;95.90;;;23.97;90.09;101106.78;5229600;28;20414;-69
2023/06/22 01:28:05;;;;;;;2.92;2.28;;;23.40;96.00;;;23.96;89.66;101099.72;5245665;28;20060;-69
2023/06/22 01:30:42;;;;;;;4.03;3.03;;;23.40;95.90;;;23.95;89.63;101092.63;5239368;28;20044;-69
2023/06/22 01:33:15;;;;;;;4.88;3.45;;;23.40;95.90;;;23.94;89.18;101088.22;5246051;28;20458;-69
2023/06/22 01:35:47;;;;;;;4.38;2.83;;;23.30;95.80;;;23.92;89.94;101084.69;5229498;28;20532;-69
2023/06/22 01:38:21;;;;;;;3.80;2.70;;;23.30;96.10;;;23.89;90.32;101084.75;5247393;28;20037;-69
2023/06/22 01:40:54;;;;;;;4.32;3.17;;;23.30;96.20;;;23.89;90.58;101084.75;5247137;28;20440;-69
2023/06/22 01:43:28;;;;;;;4.10;3.03;;;23.30;96.40;;;23.88;91.71;101077.66;5247103;28;20532;-69
2023/06/22 01:46:05;;;;;;;4.72;3.33;;;23.30;96.70;;;23.87;92.23;101080.34;5229432;28;20449;-69
2023/06/22 01:48:37;;;;;;;4.30;2.70;;;23.30;96.90;;;23.85;92.23;101072.38;5239360;28;20051;-69
2023/06/22 01:51:09;;;;;;;4.03;3.22;;;23.30;97.00;;;23.84;92.58;101073.28;5245385;28;20036;-69
2023/06/22 01:53:42;;;;;;;3.60;3.17;;;23.20;97.10;;;23.82;91.69;101078.63;5229024;28;20440;-69
2023/06/22 01:56:14;;;;;;;4.15;3.05;;;23.20;96.90;;;23.81;92.01;101082.19;5228697;28;20525;-70
2023/06/22 01:58:54;;;;;;;3.83;2.92;;;23.20;97.00;;;23.82;92.20;101077.75;5245829;28;20105;-69
2023/06/22 02:01:33;;;;;;;3.95;2.92;;;23.20;97.10;;;23.82;91.51;101070.66;5228709;28;20052;-69
2023/06/22 02:04:10;;;;;;;3.67;2.83;;;23.20;97.00;;;23.81;91.05;101071.56;5228762;28;20060;-69
2023/06/22 02:06:46;;;;;;;5.30;3.28;;;23.20;96.90;;;23.79;91.99;101073.34;5212356;28;20047;-69
2023/06/22 02:09:20;;;;;;;4.60;3.50;;;23.20;97.10;;;23.78;92.44;101082.22;5178642;28;20434;-69
2023/06/22 02:11:55;;;;;;;4.57;3.33;;;23.20;97.40;;;23.75;93.32;101071.66;5212560;28;20055;-69
2023/06/22 02:14:29;;;;;;;3.78;2.83;;;23.20;97.70;;;23.73;93.75;101073.44;5228378;28;20502;-69
2023/06/22 02:17:04;;;;;;;4.47;3.00;;;23.20;97.80;;;23.70;94.57;101073.50;5224219;28;20037;-69
2023/06/22 02:19:37;;;;;;;3.78;3.17;;;23.10;98.10;;;23.66;95.24;101071.75;5237298;28;20478;-69
2023/06/22 02:22:10;;;;;;;4.40;3.38;;;23.10;98.30;;;23.63;94.88;101078.94;5246307;28;20037;-69
2023/06/22 02:24:42;;;;;;;4.38;3.05;;;23.10;98.30;;;23.64;94.70;101078.91;5228635;28;20165;-70
2023/06/22 02:27:15;;;;;;;4.80;3.15;;;23.10;98.40;;;23.64;93.71;101078.03;5228086;28;20051;-69
2023/06/22 02:29:47;;;;;;;4.82;3.58;;;23.00;98.10;;;23.61;92.88;101078.97;5228400;28;20048;-69
2023/06/22 02:32:20;;;;;;;4.38;3.13;;;23.00;97.90;;;23.63;92.31;101081.59;5246066;28;20032;-69
2023/06/22 02:34:53;;;;;;;4.55;3.17;;;23.00;97.80;;;23.60;92.33;101074.47;5245119;28;20045;-70
2023/06/22 02:37:29;;;;;;;4.88;3.20;;;23.00;97.80;;;23.60;92.30;101070.94;5227854;28;20056;-69
2023/06/22 02:40:07;;;;;;;4.80;3.22;;;23.00;97.70;;;23.59;92.04;101074.50;5228326;28;20041;-69
2023/06/22 02:42:41;;;;;;;5.70;3.33;;;23.00;97.70;;;23.58;92.21;101067.44;5244733;28;20067;-69
2023/06/22 02:45:14;;;;;;;4.38;3.35;;;23.00;97.70;;;23.55;92.58;101074.56;5228121;28;20127;-69
2023/06/22 02:47:50;;;;;;;4.68;3.15;;;23.00;97.90;;;23.52;93.42;101066.63;5226804;28;20075;-69
2023/06/22 02:50:24;;;;;;;4.95;3.22;;;22.90;98.10;;;23.50;93.83;101067.56;5244209;28;20151;-69
2023/06/22 02:52:58;;;;;;;4.43;2.88;;;22.90;98.30;;;23.48;94.03;101061.38;5227904;28;20097;-70
2023/06/22 02:55:30;;;;;;;5.35;3.72;;;22.90;98.40;;;23.45;93.57;101056.97;5227791;28;20041;-69
2023/06/22 02:58:05;;;;;;;4.45;3.42;;;22.90;98.30;;;23.43;92.84;101053.47;5227305;28;20123;-69
2023/06/22 03:00:40;;;;;;;6.05;3.67;;;22.90;98.10;;;23.37;92.40;101050.88;5203800;28;20050;-69
2023/06/22 03:03:17;;;;;;;6.07;4.07;;;22.90;98.00;;;23.33;92.09;101049.16;5227676;28;20044;-69
2023/06/22 03:05:49;;;;;;;5.47;3.75;;;22.80;97.90;;;23.32;92.37;101049.19;5244350;28;20044;-69
2023/06/22 03:08:21;;;;;;;6.22;3.92;;;22.80;97.90;;;23.31;92.06;101053.63;5243433;28;20127;-69
2023/06/22 03:10:54;;;;;;;5.50;3.53;;;22.80;97.80;;;23.31;91.76;101048.31;5227405;28;20068;-69
2023/06/22 03:13:26;;;;;;;3.88;3.30;;;22.80;97.80;;;23.33;91.39;101054.47;5227346;28;20080;-69
2023/06/22 03:15:58;;;;;;;4.82;3.35;;;22.80;97.70;;;23.33;91.06;101046.50;5194037;28;20052;-69
2023/06/22 03:18:32;;;;;;;4.38;3.22;;;22.80;97.60;;;23.35;90.93;101044.72;5210629;28;20044;-69
2023/06/22 03:21:05;;;;;;;5.55;3.42;;;22.80;97.60;;;23.34;90.94;101040.25;5223162;28;20049;-69
2023/06/22 03:23:37;;;;;;;6.18;4.40;;;22.80;97.70;;;23.34;91.07;101042.91;5245108;28;20416;-69
2023/06/22 03:26:10;;;;;;;4.90;3.70;;;22.80;97.70;;;23.31;91.48;101037.66;5226916;28;20040;-69
2023/06/22 03:28:42;;;;;;;6.60;4.10;;;22.80;97.80;;;23.31;92.49;101048.31;5245352;28;20039;-69
2023/06/22 03:31:15;;;;;;;5.80;3.80;;;22.80;98.10;;;23.29;92.85;101045.66;5227144;28;20044;-69
2023/06/22 03:33:49;;;;;;;6.22;3.67;;;22.70;98.20;;;23.27;92.69;101052.75;5210797;28;20104;-69
2023/06/22 03:36:22;;;;;;;4.82;3.53;;;22.70;98.20;;;23.25;92.58;101043.06;5226570;28;20048;-69
2023/06/22 03:38:54;;;;;;;5.20;3.78;;;22.70;98.10;;;23.22;92.58;101048.44;5210985;28;20047;-69
2023/06/22 03:41:27;;;;;;;5.20;3.85;;;22.70;98.20;;;23.21;93.14;101046.66;5226836;28;20143;-69
2023/06/22 03:44:03;;;;;;;5.82;4.05;;;22.70;98.30;;;23.23;93.61;101036.91;5210604;28;20048;-69
2023/06/22 03:46:35;;;;;;;5.65;3.63;;;22.70;98.50;;;23.23;93.71;101039.56;5226614;28;20490;-70
2023/06/22 03:49:09;;;;;;;5.03;3.63;;;22.70;98.60;;;23.20;94.64;101035.13;5226974;28;20048;-69
2023/06/22 03:51:41;;;;;;;5.90;3.80;;;22.70;98.80;;;23.20;95.43;101028.94;5244506;28;20040;-69
2023/06/22 03:54:13;;;;;;;6.57;4.13;;;22.70;99.10;;;23.19;95.83;101022.75;5226992;28;20044;-69
2023/06/22 03:56:45;;;;;;;6.05;4.13;;;22.70;99.20;;;23.16;96.89;101028.13;5209934;28;20497;-69
2023/06/22 03:59:18;;;;;;;5.25;3.67;;;22.70;99.50;;;23.15;98.45;101020.16;5209938;28;20059;-69
2023/06/22 04:01:50;;;;;;;5.18;3.90;;;22.70;99.90;;;23.15;98.91;101025.50;5265062;22;20069;-82
2023/06/22 04:04:23;;;;;;;5.68;3.95;;;22.60;99.90;;;23.15;99.90;101020.16;5269346;28;20047;-81
2023/06/22 04:06:55;;;;;;;5.13;3.60;;;22.60;99.90;;;23.16;100.00;101033.44;5274156;28;20040;-81
2023/06/22 04:09:27;;;;;;;5.57;4.10;;;22.60;99.90;;;23.17;100.00;101021.03;5275045;28;20044;-82
2023/06/22 04:11:59;;;;;;;6.30;4.53;;;22.60;99.90;;;23.17;99.91;101018.38;5254854;28;20045;-81
2023/06/22 04:14:31;;;;;;;6.68;4.20;;;22.70;99.90;;;23.15;99.76;101009.53;5231166;28;20045;-83
2023/06/22 04:17:04;;;;;;;6.07;4.03;;;22.70;99.90;;;23.16;100.00;101022.81;5246067;28;20064;-81
2023/06/22 04:19:38;;;;;;;8.38;4.03;;;22.70;99.90;;;23.15;99.97;101012.19;5248827;28;20040;-81
2023/06/22 04:22:10;;;;;;;6.65;4.38;;;22.70;99.90;;;23.17;100.00;101013.03;5239999;28;20037;-82
2023/06/22 04:24:42;;;;;;;6.88;4.43;;;22.70;99.90;;;23.16;99.97;101006.84;5213626;28;20059;-82
2023/06/22 04:27:14;;;;;;;6.38;4.70;;;22.70;99.90;;;23.17;99.66;101008.59;5232723;28;20064;-80
2023/06/22 04:29:48;;;;;;;9.25;5.35;;;22.70;99.90;;;23.08;100.00;101013.16;5234725;28;20123;-81
2023/06/22 04:32:20;;;;;;;7.55;4.90;;;22.70;99.90;;;23.00;100.00;101016.78;5221911;28;20049;-81
2023/06/22 04:34:53;;;;;;;8.50;5.22;;;22.60;99.90;;;22.96;100.00;101014.22;5242532;28;20075;-82
2023/06/22 04:37:26;;;;;;;7.10;5.25;;;22.60;99.90;;;22.91;100.00;101019.56;5237402;28;20049;-82
2023/06/22 04:39:58;;;;;;;8.10;5.28;;;22.50;99.90;;;22.86;100.00;101012.50;5231037;28;20049;-82
2023/06/22 04:42:30;;;;;;;7.68;5.07;;;22.50;99.90;;;22.85;100.00;101008.97;5241786;28;20041;-80
2023/06/22 04:45:02;;;;;;;10.20;5.70;;;22.50;99.90;;;22.87;100.00;101009.00;5234432;28;20067;-81
2023/06/22 04:47:34;;;;;;;7.57;5.38;;;22.50;99.90;;;22.87;100.00;101009.88;5223987;28;20048;-81
2023/06/22 04:50:08;;;;;;;7.20;5.28;;;22.50;99.90;;;22.81;100.00;100999.28;5226115;28;20041;-81
2023/06/22 04:52:40;;;;;;;7.93;5.82;;;22.40;99.90;;;22.83;100.00;100996.63;5219553;28;20417;-81
2023/06/22 04:55:13;;;;;;;7.43;5.47;;;22.40;99.90;;;22.90;100.00;101009.84;5220455;28;20413;-80
2023/06/22 04:57:48;;;;;;;6.65;4.72;;;22.50;99.90;;;22.98;100.00;101018.59;5227820;28;20040;-81
2023/06/22 05:00:22;;;;;;;6.47;4.40;;;22.50;99.90;;;23.04;100.00;101022.09;5241693;28;20037;-82
2023/06/22 05:02:56;;;;;;;6.90;4.60;;;22.60;99.90;;;23.09;100.00;101009.63;5250603;28;20101;-82
2023/06/22 05:05:30;;;;;;;6.72;4.70;;;22.60;99.90;;;23.12;100.00;100993.59;5240853;28;20051;-81
2023/06/22 05:08:03;;;;;;;8.88;5.65;;;22.60;99.90;;;23.12;100.00;100996.25;5250904;28;20535;-83
2023/06/22 05:10:35;;;;;;;6.43;4.65;;;22.60;99.90;;;23.12;100.00;100994.47;5253085;28;20520;-82
2023/06/22 05:13:07;;;;;;;6.50;4.72;;;22.60;99.90;;;23.14;100.00;101002.44;5243425;28;20041;-82
2023/06/22 05:15:39;;;;;;;7.57;5.10;;;22.70;99.90;;;23.13;100.00;101011.31;5249864;28;20040;-82
2023/06/22 05:18:11;;;;;;;6.88;4.78;;;22.60;99.90;;;23.17;100.00;101013.91;5250562;28;20104;-82
2023/06/22 05:20:45;;;;;;;6.57;4.55;;;22.70;99.90;;;23.22;100.00;101013.88;5242300;28;20040;-82
2023/06/22 05:23:17;;;;;;;7.07;4.80;;;22.70;99.90;;;23.28;100.00;101017.31;5236364;28;20041;-81
2023/06/22 05:25:49;;;;;;;6.53;4.50;;;22.70;99.90;;;23.34;100.00;101018.97;5239520;28;20040;-82
2023/06/22 05:28:22;;;;;;;6.22;4.07;;;22.80;99.90;;;23.40;100.00;101015.38;5246908;28;20033;-82
2023/06/22 05:30:55;;;;;;;6.00;4.30;;;22.80;99.90;;;23.47;100.00;101022.34;5221200;28;20052;-81
2023/06/22 05:33:27;;;;;;;6.28;4.78;;;22.90;99.90;;;23.57;100.00;101026.66;5219654;28;20052;-83
2023/06/22 05:36:00;;;;;;;8.60;5.40;;;23.00;99.90;;;23.67;100.00;101030.97;5217920;28;20055;-80
2023/06/22 05:38:32;;;;;;;8.85;5.15;;;23.10;99.90;;;23.87;100.00;101033.31;5247006;28;20594;-79
2023/06/22 05:41:04;;;;;;;8.20;5.03;;;23.30;99.90;;;24.05;100.00;101021.47;5260655;28;20048;-84
2023/06/22 05:43:37;;;;;;;9.18;5.30;;;23.40;99.90;;;24.19;100.00;101019.47;5258279;28;20047;-87
2023/06/22 05:46:09;;;;;;;6.72;4.45;;;23.60;99.90;;;24.30;100.00;101012.13;5248142;28;20047;-77
2023/06/22 05:48:41;;;;;;;6.78;4.72;;;23.70;99.90;;;24.45;100.00;101015.44;5248055;28;20044;-78
2023/06/22 05:51:14;;;;;;;6.50;4.53;;;23.80;99.90;;;24.67;100.00;101021.25;5246926;28;20581;-77
2023/06/22 05:53:49;;;;;;;9.38;5.60;;;24.00;99.90;;;24.87;100.00;101022.59;5240541;28;20405;-77
2023/06/22 05:58:53;;;;;;;7.93;4.80;;;24.30;99.90;;;25.02;98.73;101034.72;5223921;22;20059;-75
2023/06/22 06:01:25;;;;;;;7.10;4.55;;;24.30;99.90;;;24.99;99.28;101034.81;5246881;28;20044;-76
2023/06/22 06:03:57;;;;;;;6.13;4.40;;;24.40;99.90;;;25.02;98.35;101034.72;5254487;28;20059;-76
2023/06/22 06:06:31;;;;;;;6.93;4.45;;;24.40;99.90;;;25.05;96.85;101036.50;5259563;28;20040;-77
2023/06/22 06:10:21;;;;;;;7.20;4.90;;;24.40;99.90;;;25.06;97.25;101033.81;5334892;27;20750;-50
2023/06/22 06:12:53;;;;;;;7.78;4.50;;;24.50;99.90;;;25.03;97.46;101041.81;5286235;28;20046;-50
2023/06/22 06:15:26;;;;;;;6.85;4.72;;;24.40;99.90;;;24.98;98.24;101033.06;5278208;28;20411;-49
2023/06/22 06:17:58;;;;;;;6.32;4.22;;;24.40;99.90;;;24.92;98.43;101029.66;5303634;28;20047;-49
2023/06/22 06:20:32;;;;;;;6.90;4.55;;;24.40;99.90;;;24.90;98.97;101034.97;5286334;28;20047;-50
2023/06/22 06:23:07;;;;;;;6.40;4.10;;;24.30;99.90;;;24.95;98.60;101034.91;5286318;28;20061;-49
2023/06/22 06:25:41;;;;;;;6.70;4.30;;;24.30;99.90;;;24.95;98.38;101045.56;5299930;28;20041;-50
2023/06/22 06:28:14;;;;;;;6.03;4.20;;;24.30;99.90;;;24.95;98.58;101049.09;5282279;28;20052;-49
2023/06/22 06:30:47;;;;;;;7.03;4.13;;;24.30;99.90;;;24.96;99.27;101045.53;5277337;28;20070;-51
2023/06/22 06:33:23;;;;;;;5.90;3.85;;;24.30;99.90;;;24.92;99.59;101049.19;5266565;28;20601;-49
2023/06/22 06:35:56;;;;;;;6.35;4.20;;;24.30;99.90;;;24.87;99.61;101051.06;5285246;28;20496;-50
2023/06/22 06:38:28;;;;;;;5.82;3.80;;;24.30;99.90;;;24.81;99.41;101056.50;5285184;28;20392;-50
2023/06/22 06:41:05;;;;;;;5.75;4.13;;;24.20;99.90;;;24.78;99.87;101056.59;5284781;28;20056;-50
2023/06/22 06:43:38;;;;;;;6.63;4.10;;;24.20;99.90;;;24.76;100.00;101059.25;5280668;28;20051;-49
2023/06/22 06:46:10;;;;;;;6.47;3.80;;;24.20;99.90;;;24.77;100.00;101060.13;5298099;28;20040;-51
2023/06/22 06:48:42;;;;;;;5.65;3.85;;;24.20;99.90;;;24.79;100.00;101053.00;5276248;28;20080;-50
2023/06/22 06:51:15;;;;;;;5.43;3.70;;;24.20;99.90;;;24.83;100.00;101030.69;5281297;28;20054;-50
2023/06/22 06:53:47;;;;;;;6.00;3.90;;;24.20;99.90;;;24.89;100.00;101019.91;5276265;28;20048;-50
2023/06/22 06:56:21;;;;;;;5.32;3.97;;;24.20;99.90;;;24.95;100.00;101026.91;5283029;28;20039;-50
2023/06/22 06:58:54;;;;;;;6.57;3.80;;;24.30;99.90;;;25.03;100.00;101024.94;5284337;28;20388;-51
2023/06/22 07:01:26;;;;;;;6.40;4.10;;;24.30;99.90;;;25.11;100.00;101007.91;5268425;28;20048;-50
2023/06/22 07:03:58;;;;;;;6.57;4.05;;;24.40;99.90;;;25.27;99.81;101018.25;5271187;28;20197;-51
2023/06/22 07:06:33;;;;;;;6.40;4.28;;;24.50;99.90;;;25.42;98.42;101017.88;5264385;28;20054;-50
2023/06/22 07:09:05;;;;;;;;;;;24.60;99.90;;;25.53;97.89;101015.84;5285489;28;20043;-50
2023/06/22 07:11:39;;;;;;;6.95;4.38;;;24.70;99.90;;;25.64;97.84;101016.50;5265602;28;19923;-51
2023/06/22 07:14:11;;;;;;;7.47;4.60;;;24.80;99.90;;;25.88;98.35;101006.13;5280924;28;20043;-50
2023/06/22 07:16:43;;;;;;;7.72;4.45;;;25.00;99.90;;;26.16;94.99;101001.84;5280274;28;20048;-48
2023/06/22 07:19:26;;;;;;;6.78;4.35;;;25.30;99.90;;;26.30;94.04;101003.28;5284754;28;20503;-48
2023/06/22 07:21:59;;;;;;;6.88;4.20;;;25.50;99.90;;;26.34;92.84;101004.94;5263166;28;20146;-47
2023/06/22 07:24:32;;;;;;;6.53;4.25;;;25.50;99.90;;;26.38;93.38;100995.94;5268403;28;20043;-47
2023/06/22 07:27:11;;;;;;;6.88;4.30;;;25.60;99.90;;;26.28;93.50;101005.09;5264292;28;20108;-46
2023/06/22 07:29:43;;;;;;;6.72;4.30;;;25.60;99.90;;;26.22;94.17;101006.16;5270638;28;20044;-46
2023/06/22 07:32:15;;;;;;;6.75;4.53;;;25.50;99.90;;;26.07;93.60;101002.06;5261755;28;20237;-45
2023/06/22 07:34:48;;;;;;;6.25;4.10;;;25.50;99.90;;;26.03;93.87;100989.75;5257794;28;20056;-46
2023/06/22 07:37:23;;;;;;;8.93;4.57;;;25.50;99.90;;;26.01;93.15;100980.00;5262353;28;20083;-46
2023/06/22 07:39:58;;;;;;;6.53;4.45;;;25.40;99.90;;;26.11;93.36;100987.75;5257938;28;20488;-47
2023/06/22 07:42:32;;;;;;;6.45;4.28;;;25.40;99.90;;;26.35;92.73;100988.00;5251581;28;20436;-46
2023/06/22 07:45:09;;;;;;;6.25;4.50;;;25.50;99.90;;;26.65;92.01;100989.84;5270188;28;20047;-46
2023/06/22 07:47:41;;;;;;;6.68;4.30;;;25.70;99.90;;;26.77;89.82;100991.28;5261654;28;20035;-46
2023/06/22 07:50:14;;;;;;;6.60;4.40;;;25.90;99.40;;;26.88;89.09;100974.94;5254074;28;20047;-48
2023/06/22 07:52:47;;;;;;;8.05;4.82;;;26.00;99.20;;;27.06;88.46;100969.06;5256932;28;20043;-49
2023/06/22 07:55:20;;;;;;;7.05;4.65;;;26.10;99.00;;;27.22;87.33;100954.28;5257569;28;20430;-48
2023/06/22 07:57:54;;;;;;;6.55;4.50;;;26.20;98.60;;;27.41;87.29;100954.56;5255694;28;20036;-49
2023/06/22 08:00:27;;;;;;;7.43;5.03;;;26.40;98.60;;;27.51;86.28;100952.44;5260830;28;20047;-48
2023/06/22 08:02:59;;;;;;;6.63;4.68;;;26.50;98.30;;;27.62;86.30;100963.69;5265912;28;20039;-48
2023/06/22 08:05:32;;;;;;;8.15;4.47;;;26.60;98.30;;;27.97;85.47;100959.84;5264142;28;20047;-48
2023/06/22 08:08:05;;;;;;;7.55;4.60;;;26.80;98.20;;;28.48;84.26;100960.75;5262102;28;20052;-48
2023/06/22 08:10:37;;;;;;;7.45;4.50;;;27.20;98.00;;;28.74;82.48;100955.28;5274323;28;20524;-48
2023/06/22 08:13:11;;;;;;;6.70;4.72;;;27.40;97.50;;;29.08;81.84;100954.00;5258955;28;20047;-48
2023/06/22 08:15:44;;;;;;;7.35;4.50;;;27.70;97.30;;;29.60;78.37;100950.13;5250041;28;20051;-48
2023/06/22 08:18:17;;;;;;;7.20;4.20;;;28.10;96.50;;;30.31;76.06;100947.97;5259698;28;20059;-49
2023/06/22 08:20:50;;;;;;;6.10;4.25;;;28.50;95.90;;;30.99;73.92;100930.50;5265388;28;20036;-49
2023/06/22 08:23:25;;;;;;;6.38;4.07;;;29.00;95.10;;;31.53;71.12;100942.22;5267998;28;20075;-49
2023/06/22 08:25:58;;;;;;;7.40;4.30;;;29.40;94.40;;;32.06;69.01;100935.06;5267946;28;20043;-48
2023/06/22 08:28:31;;;;;;;6.35;4.07;;;29.70;93.60;;;32.52;67.11;100919.16;5274244;28;20043;-49
2023/06/22 08:31:04;;;;;;;;;;;30.10;92.80;;;32.90;65.56;100912.53;5263559;28;20044;-50
2023/06/22 08:33:36;;;;;;;6.53;4.00;;;30.40;91.80;;;33.39;64.60;100915.16;5254502;28;19920;-49
2023/06/22 08:36:10;;;;;;;5.63;3.90;;;30.70;91.50;;;33.82;63.35;100919.81;5264095;28;20563;-49
2023/06/22 08:38:43;;;;;;;5.53;3.90;;;31.00;91.00;;;34.54;61.63;100910.88;5256065;28;20454;-49
2023/06/22 08:41:19;;;;;;;5.38;3.85;;;31.40;90.40;;;35.35;59.61;100902.91;5246457;28;20056;-49
2023/06/22 08:43:53;;;;;;;5.72;4.20;;;32.00;89.20;;;36.11;57.73;100907.66;5247199;28;20044;-50
2023/06/22 08:46:30;;;;;;;5.95;4.28;;;32.60;86.90;;;36.15;56.04;100909.19;5275704;28;20400;-49
2023/06/22 08:49:02;;;;;;;5.85;3.83;;;32.80;83.70;;;36.20;55.88;100907.03;5260942;28;20050;-49
2023/06/22 08:51:35;;;;;;;6.47;4.30;;;33.10;82.30;;;35.71;57.03;100904.97;5273094;28;20044;-50
2023/06/22 08:54:07;;;;;;;6.28;4.47;;;33.10;81.50;;;34.83;57.26;100897.34;5261577;28;20055;-49
2023/06/22 08:56:39;;;;;;;6.65;4.30;;;32.60;80.30;;;33.84;60.31;100894.44;5256288;28;20427;-49
2023/06/22 08:59:16;;;;;;;5.72;4.13;;;32.10;81.40;;;33.09;62.32;100888.06;5264944;28;20360;-49
2023/06/22 09:01:49;;;;;;;6.57;4.32;;;31.60;82.40;;;32.47;64.32;100881.63;5261537;28;20051;-48
2023/06/22 09:04:22;;;;;;;6.25;4.18;;;31.20;83.70;;;32.01;66.05;100878.69;5263271;28;20408;-48
2023/06/22 09:06:54;;;;;;;8.18;4.82;;;30.80;84.90;;;31.63;67.89;100869.91;5271569;28;20040;-49
2023/06/22 09:09:26;;;;;;;8.40;4.68;;;30.50;86.30;;;31.48;68.64;100863.47;5251518;28;20047;-50
2023/06/22 09:11:59;;;;;;;6.18;4.20;;;30.30;87.10;;;31.30;69.50;100853.66;5267603;28;20419;-49
2023/06/22 09:14:32;;;;;;;6.57;4.25;;;30.10;87.80;;;31.18;70.19;100848.84;5266439;28;20051;-49
2023/06/22 09:17:05;;;;;;;;;;;30.00;88.60;;;30.95;70.77;100844.59;5266619;28;20083;-47
2023/06/22 09:19:41;;;;;;;7.05;4.65;;;29.80;88.60;;;30.65;71.49;100845.13;5249066;28;19920;-47
2023/06/22 09:22:14;;;;;;;6.65;4.68;;;29.60;89.70;;;30.44;71.96;100838.91;5269757;28;20142;-49
2023/06/22 09:24:46;;;;;;;7.38;4.82;;;29.40;89.40;;;30.17;72.85;100829.44;5249880;28;20051;-49
2023/06/22 09:27:22;;;;;;;9.13;5.15;;;29.30;89.90;;;30.00;74.78;100822.13;5255357;28;20137;-50
2023/06/22 09:29:58;;;;;;;7.20;4.95;;;29.10;90.70;;;29.91;74.50;100815.34;5270209;28;20618;-49
2023/06/22 09:32:30;;;;;;;8.02;4.47;;;29.00;90.70;;;29.88;75.52;100818.19;5258115;28;20051;-49
2023/06/22 09:35:06;;;;;;;6.63;4.40;;;29.00;91.00;;;29.89;75.69;100801.13;5258304;28;20043;-49
2023/06/22 09:37:42;;;;;;;6.80;4.60;;;29.00;91.40;;;29.91;75.20;100801.91;5272504;28;20122;-48
2023/06/22 09:40:16;;;;;;;6.25;4.63;;;29.00;91.00;;;29.96;75.06;100807.09;5265962;28;20050;-48
2023/06/22 09:42:49;;;;;;;7.72;4.85;;;29.00;91.20;;;30.10;75.57;100803.78;5269932;28;20163;-47
2023/06/22 09:45:25;;;;;;;7.47;4.72;;;29.10;91.20;;;30.23;75.77;100805.84;5222797;28;20458;-47
2023/06/22 09:47:58;;;;;;;7.20;4.80;;;29.20;91.40;;;30.24;74.93;100798.63;5212708;28;20489;-47
2023/06/22 09:50:30;;;;;;;7.13;4.80;;;29.20;91.10;;;30.17;74.60;100798.06;5212814;28;20052;-47
2023/06/22 09:53:02;;;;;;;6.90;4.57;;;29.30;90.90;;;29.98;74.23;100792.63;5217817;28;20048;-47
2023/06/22 09:55:35;;;;;;;7.18;4.70;;;29.20;90.50;;;29.84;75.08;100795.06;5225309;28;20044;-48
2023/06/22 09:58:08;;;;;;;6.93;4.72;;;29.10;90.90;;;29.63;75.40;100806.78;5237525;28;20041;-47
2023/06/22 10:00:42;;;;;;;9.52;5.07;;;28.90;90.90;;;29.42;76.40;100800.50;5206354;28;20106;-47
2023/06/22 10:03:14;;;;;;;7.18;5.00;;;28.70;91.10;;;29.17;76.45;100800.69;5211536;28;20044;-47
2023/06/22 10:05:47;;;;;;;8.25;5.47;;;28.50;90.90;;;28.97;76.97;100804.19;5225240;28;20044;-47
2023/06/22 10:08:20;;;;;;;8.05;5.00;;;28.40;91.30;;;28.86;78.20;100818.00;5224973;28;20055;-47
2023/06/22 10:10:52;;;;;;;8.05;4.95;;;28.30;91.70;;;28.75;78.01;100816.69;5224884;28;20040;-47
2023/06/22 10:13:27;;;;;;;7.35;4.90;;;28.20;91.60;;;28.68;78.46;100816.06;5225127;28;20048;-47
2023/06/22 10:16:01;;;;;;;6.78;4.57;;;28.10;91.90;;;28.60;78.61;100820.88;5221327;28;20061;-47
2023/06/22 10:18:34;;;;;;;6.40;4.63;;;28.00;91.90;;;28.50;79.05;100846.31;5220859;28;20052;-47
2023/06/22 10:21:06;;;;;;;7.15;4.72;;;27.90;92.30;;;28.41;79.41;100852.88;5223559;28;20045;-47
2023/06/22 10:23:44;;;;;;;7.38;4.53;;;27.80;92.20;;;28.30;80.49;100850.59;5218302;28;20053;-46
2023/06/22 10:26:17;;;;;;;7.07;4.50;;;27.70;92.60;;;28.23;82.92;100856.22;5224556;28;20048;-47
2023/06/22 10:28:49;;;;;;;5.88;4.45;;;27.70;93.50;;;28.16;85.81;100860.91;5222534;28;20037;-47
2023/06/22 10:31:23;;;;;;;6.40;4.53;;;27.60;94.40;;;28.13;88.85;100885.16;5223930;28;20120;-47
2023/06/22 10:33:56;;;;;;;6.78;4.53;;;27.50;95.40;;;28.06;90.93;100886.31;5223974;28;20047;-47
2023/06/22 10:36:29;;;;;;;6.25;4.32;;;27.40;96.20;;;28.02;95.31;100895.38;5223724;28;20090;-46
2023/06/22 10:39:02;;;;;;;5.85;4.07;;;27.40;97.70;;;27.94;98.06;100901.03;5224077;28;20056;-46
2023/06/22 10:41:38;;;;;;;8.10;4.60;;;27.30;98.70;;;27.85;100.00;100907.59;5214614;28;20072;-47
2023/06/22 10:44:10;;;;;;;7.05;4.80;;;27.20;99.90;;;27.73;100.00;100905.34;5224597;28;20048;-47
2023/06/22 10:46:44;;;;;;;7.93;5.03;;;27.10;99.90;;;27.58;100.00;100895.09;5223674;28;20473;-47
2023/06/22 10:49:16;;;;;;;6.80;4.25;;;26.90;99.90;;;27.43;100.00;100887.59;5224438;28;20051;-47
2023/06/22 10:51:52;;;;;;;6.45;4.80;;;26.80;99.90;;;27.27;100.00;100882.75;5221291;28;20185;-48
2023/06/22 10:54:24;;;;;;;7.53;4.55;;;26.70;99.90;;;27.13;100.00;100884.16;5215879;28;20413;-48
2023/06/22 10:56:57;;;;;;;7.50;4.90;;;26.60;99.90;;;27.01;100.00;100880.03;5223085;28;20045;-48
2023/06/22 10:59:29;;;;;;;8.93;5.45;;;26.40;99.90;;;26.91;100.00;100891.91;5204948;28;20500;-48
2023/06/22 11:02:03;;;;;;;7.65;5.13;;;26.30;99.90;;;26.79;100.00;100896.72;5169959;28;20128;-48
2023/06/22 11:04:35;;;;;;;7.57;5.13;;;26.20;99.90;;;26.75;100.00;100931.63;5218382;28;20072;-48
2023/06/22 11:07:08;;;;;;;7.50;4.90;;;26.10;99.90;;;26.69;100.00;100958.56;5224646;28;20047;-50
2023/06/22 11:09:41;;;;;;;8.38;5.25;;;26.10;99.90;;;26.59;100.00;100968.63;5223240;28;20522;-50
2023/06/22 11:12:13;;;;;;;8.85;5.32;;;26.00;99.90;;;26.47;100.00;100959.19;5222822;28;20049;-49
2023/06/22 11:14:45;;;;;;;13.05;6.78;;;25.80;99.90;;;26.22;100.00;100909.97;5216648;28;20087;-48
2023/06/22 11:17:19;;;;;;;10.90;6.55;;;25.70;99.90;;;25.88;100.00;100877.97;5222194;28;20049;-48
2023/06/22 11:19:52;;;;;;;11.02;5.85;;;25.50;99.90;;;25.68;100.00;100875.78;5224896;28;20036;-48
2023/06/22 11:22:24;;;;;;;10.82;6.30;;;25.30;99.90;;;25.66;100.00;100891.84;5240771;28;20529;-48
2023/06/22 11:24:57;;;;;;;9.88;6.47;;;25.20;99.90;;;25.73;100.00;100905.94;5210433;28;20061;-48
2023/06/22 11:27:32;;;;;;;10.85;6.18;;;25.20;99.90;;;25.77;100.00;100886.28;5226356;28;20090;-48
2023/06/22 11:30:06;;;;;;;9.13;5.97;;;25.20;99.90;;;25.78;100.00;100839.09;5231261;28;20053;-48
2023/06/22 11:32:40;;;;;;;8.90;5.80;;;25.20;99.90;;;25.81;100.00;100817.63;5225336;28;20413;-48
2023/06/22 11:35:25;;;;;;;9.60;6.15;;;25.20;99.90;;;25.83;100.00;100799.81;5222518;28;20041;-48
2023/06/22 11:38:00;;;;;;;17.17;8.98;;;25.20;99.90;;;25.87;100.00;100780.09;5227761;28;20040;-48
2023/06/22 11:40:33;;;;;;;113.35;42.40;;;25.30;99.90;;;25.96;100.00;100771.81;5228347;28;20045;-48